Time;durP1;ratioP1;P1;durP2;ratioP2;P2;SDS_P1;SDS_P2;PMS_P1;PMS_P2;Temp;Humidity;BMP_temperature;BMP_pressure;BME280_temperature;BME280_humidity;BME280_pressure;Samples;Min_cycle;Max_cycle;Signal;HPM_P1;HPM_P2
2022/04/27 00:00:03;;;;;;;15.07;9.00;;;;;;;;;;4996190;28;20269;-79
2022/04/27 00:02:30;;;;;;;16.27;8.63;;;;;;;;;;4996459;28;20683;-79
2022/04/27 00:04:57;;;;;;;18.10;9.53;;;8.40;99.90;;;;;;5013539;28;20184;-79
2022/04/27 00:07:23;;;;;;;19.83;10.27;;;;;;;;;;4996356;28;20185;-79
2022/04/27 00:09:49;;;;;;;16.80;8.93;;;;;;;;;;4995927;28;20184;-80
2022/04/27 00:12:15;;;;;;;18.27;9.30;;;;;;;;;;4996046;28;20271;-80
2022/04/27 00:14:41;;;;;;;15.17;9.07;;;;;;;;;;4995670;28;20224;-80
2022/04/27 00:17:07;;;;;;;22.87;10.17;;;8.10;99.90;;;;;;5012159;28;20668;-80
2022/04/27 00:19:33;;;;;;;17.17;9.50;;;7.90;99.90;;;;;;4995630;28;20264;-81
2022/04/27 00:21:58;;;;;;;20.93;10.80;;;8.50;99.90;;;;;;4979005;28;20268;-80
2022/04/27 00:24:24;;;;;;;25.73;9.50;;;;;;;;;;5012328;28;20260;-81
2022/04/27 00:26:50;;;;;;;20.83;10.57;;;8.40;99.90;;;;;;4976845;28;20182;-80
2022/04/27 00:29:16;;;;;;;13.67;8.37;;;;;;;;;;4990241;28;20217;-83
2022/04/27 00:31:42;;;;;;;20.17;9.97;;;;;;;;;;5012524;28;20181;-81
2022/04/27 00:34:08;;;;;;;19.03;9.07;;;8.70;99.90;;;;;;5013787;28;20264;-80
2022/04/27 00:36:35;;;;;;;15.33;8.57;;;;;;;;;;4996661;28;20264;-80
2022/04/27 00:39:01;;;;;;;19.10;9.10;;;;;;;;;;5029851;28;20203;-82
2022/04/27 00:41:27;;;;;;;13.43;7.03;;;;;;;;;;5019150;28;20169;-84
2022/04/27 00:43:54;;;;;;;16.73;8.67;;;;;;;;;;5011132;28;20219;-80
2022/04/27 00:46:20;;;;;;;15.63;8.80;;;;;;;;;;5036832;28;20165;-84
2022/04/27 00:48:46;;;;;;;13.20;6.90;;;;;;;;;;5036338;28;20305;-89
2022/04/27 00:51:16;;;;;;;14.10;7.00;;;8.20;99.90;;;;;;5026742;28;20188;-80
2022/04/27 00:53:42;;;;;;;12.77;7.20;;;;;;;;;;4996566;28;20260;-79
2022/04/27 00:56:08;;;;;;;13.10;7.20;;;;;;;;;;5022650;28;20217;-87
2022/04/27 00:58:34;;;;;;;11.20;6.37;;;;;;;;;;5036503;28;20161;-85
2022/04/27 01:00:59;;;;;;;15.73;7.90;;;8.00;99.90;;;;;;5036367;28;20200;-81
2022/04/27 01:03:25;;;;;;;11.13;6.30;;;;;;;;;;4992496;28;20182;-81
2022/04/27 01:05:52;;;;;;;12.57;7.07;;;;;;;;;;5001330;28;20216;-81
2022/04/27 01:08:20;;;;;;;13.87;7.73;;;8.20;99.90;;;;;;5016401;28;20213;-80
2022/04/27 01:10:47;;;;;;;13.60;7.60;;;8.20;99.90;;;;;;5015676;28;20192;-80
2022/04/27 01:13:13;;;;;;;15.27;7.80;;;;;;;;;;4999818;28;20191;-81
2022/04/27 01:15:39;;;;;;;12.47;7.50;;;;;;;;;;5016881;28;20177;-80
2022/04/27 01:18:08;;;;;;;13.33;7.27;;;8.20;99.90;;;;;;4999356;28;20192;-79
2022/04/27 01:20:44;;;;;;;14.60;7.37;;;8.10;99.90;;;;;;5016816;28;20174;-80
2022/04/27 01:23:15;;;;;;;16.47;7.40;;;8.00;99.90;;;;;;5016998;28;20256;-80
2022/04/27 01:25:48;;;;;;;12.20;6.70;;;8.40;99.90;;;;;;4998936;28;20181;-79
2022/04/27 01:28:19;;;;;;;12.80;7.93;;;7.90;99.90;;;;;;5016309;28;20206;-80
2022/04/27 01:30:45;;;;;;;12.00;7.43;;;8.10;99.90;;;;;;5015564;28;20186;-79
2022/04/27 01:33:12;;;;;;;17.13;6.50;;;8.10;99.90;;;;;;4997208;28;20189;-80
2022/04/27 01:35:38;;;;;;;9.87;7.07;;;;;;;;;;5015136;28;20256;-79
2022/04/27 01:38:04;;;;;;;12.63;6.93;;;;;;;;;;4997683;28;20267;-80
2022/04/27 01:40:31;;;;;;;13.97;7.43;;;;;;;;;;5016236;28;20273;-79
2022/04/27 01:42:57;;;;;;;19.50;7.90;;;;;;;;;;4998549;28;20185;-80
2022/04/27 01:45:23;;;;;;;11.77;7.13;;;;;;;;;;4998431;28;20213;-79
2022/04/27 01:47:48;;;;;;;14.77;7.10;;;7.90;99.90;;;;;;4998611;28;20247;-80
2022/04/27 01:50:14;;;;;;;12.83;7.53;;;;;;;;;;4998763;28;20280;-80
2022/04/27 01:55:25;;;;;;;15.57;7.07;;;;;;;;;;5015910;28;20248;-80
2022/04/27 01:57:51;;;;;;;15.17;8.00;;;8.00;99.90;;;;;;5016023;28;20186;-80
2022/04/27 02:00:17;;;;;;;15.90;8.83;;;;;;;;;;4982533;28;20604;-79
2022/04/27 02:02:43;;;;;;;16.93;8.83;;;;;;;;;;4998247;28;20232;-79
2022/04/27 02:05:08;;;;;;;18.00;8.90;;;8.10;99.90;;;;;;5015777;28;20213;-79
2022/04/27 02:07:34;;;;;;;14.43;8.20;;;;;;;;;;5015892;28;20275;-79
2022/04/27 02:10:00;;;;;;;20.93;10.07;;;;;;;;;;5015423;28;20188;-81
2022/04/27 02:12:26;;;;;;;17.77;9.47;;;8.00;99.90;;;;;;4998469;28;20576;-80
2022/04/27 02:14:52;;;;;;;16.73;8.87;;;;;;;;;;4997550;28;20189;-81
2022/04/27 02:17:19;;;;;;;14.00;7.67;;;7.90;99.90;;;;;;4998171;28;20649;-79
2022/04/27 02:19:45;;;;;;;14.90;8.07;;;;;;;;;;5015475;28;20181;-79
2022/04/27 02:22:11;;;;;;;18.30;10.20;;;;;;;;;;4998060;28;20181;-79
2022/04/27 02:24:37;;;;;;;19.07;9.80;;;;;;;;;;5015147;28;20207;-80
2022/04/27 02:27:03;;;;;;;16.87;8.77;;;;;;;;;;4997921;28;20623;-80
2022/04/27 02:29:29;;;;;;;17.80;8.23;;;;;;;;;;5015334;28;20267;-80
2022/04/27 02:31:55;;;;;;;17.37;9.93;;;;;;;;;;5015190;28;20184;-80
2022/04/27 02:34:21;;;;;;;15.63;8.70;;;;;;;;;;5015357;28;20205;-80
2022/04/27 02:36:46;;;;;;;16.13;7.57;;;7.80;99.90;;;;;;5015019;28;20212;-80
2022/04/27 02:39:12;;;;;;;13.40;7.53;;;7.90;99.90;;;;;;4997905;28;20662;-80
2022/04/27 02:41:38;;;;;;;18.10;8.73;;;;;;;;;;5015210;28;20264;-81
2022/04/27 02:44:04;;;;;;;18.50;9.17;;;;;;;;;;4997539;28;20693;-81
2022/04/27 02:46:30;;;;;;;15.83;8.93;;;;;;;;;;4997244;28;20217;-80
2022/04/27 02:51:53;;;;;;;14.63;8.73;;;;;;;;;;5015043;28;20239;-81
2022/04/27 02:54:21;;;;;;;15.67;8.83;;;8.00;99.90;;;;;;5014889;28;20165;-81
2022/04/27 02:56:47;;;;;;;18.00;8.67;;;8.00;99.90;;;;;;5015225;28;20235;-81
2022/04/27 02:59:14;;;;;;;19.90;9.20;;;;;;;;;;5015500;28;20193;-80
2022/04/27 03:01:40;;;;;;;16.20;8.37;;;;;;;;;;5015055;28;20181;-81
2022/04/27 03:04:06;;;;;;;13.87;7.97;;;8.20;99.90;;;;;;5014913;28;20641;-81
2022/04/27 03:06:32;;;;;;;21.47;10.03;;;;;;;;;;4997763;28;20185;-80
2022/04/27 03:08:58;;;;;;;14.93;9.20;;;;;;;;;;5014725;28;20209;-81
2022/04/27 03:11:24;;;;;;;16.37;8.57;;;8.10;99.90;;;;;;4997913;28;20204;-80
2022/04/27 03:13:50;;;;;;;16.87;8.80;;;;;;;;;;4997011;28;20274;-86
2022/04/27 03:16:16;;;;;;;16.00;8.37;;;;;;;;;;5014539;28;20181;-81
2022/04/27 03:18:42;;;;;;;17.63;8.23;;;;;;;;;;5014249;28;20225;-80
2022/04/27 03:21:09;;;;;;;12.23;8.13;;;;;;;;;;5014037;28;20676;-81
2022/04/27 03:23:35;;;;;;;16.53;9.03;;;;;;;;;;4994671;28;20267;-81
2022/04/27 03:26:02;;;;;;;15.77;8.00;;;;;;;;;;4992743;28;20207;-80
2022/04/27 03:28:28;;;;;;;13.87;7.87;;;;;;;;;;5017666;28;20751;-80
2022/04/27 03:30:54;;;;;;;13.53;7.23;;;;;;;;;;5011028;28;20258;-80
2022/04/27 03:33:20;;;;;;;16.37;8.30;;;;;;;;;;5001989;28;20245;-81
2022/04/27 03:35:46;;;;;;;14.47;7.73;;;;;;;;;;4994327;28;20190;-81
2022/04/27 03:38:14;;;;;;;14.77;7.73;;;;;;;;;;4986053;28;20599;-81
2022/04/27 03:40:41;;;;;;;19.57;8.40;;;;;;;;;;5011827;28;20188;-79
2022/04/27 03:43:08;;;;;;;14.20;7.63;;;;;;;;;;4982077;28;20208;-80
2022/04/27 03:45:35;;;;;;;16.33;9.17;;;;;;;;;;5010550;28;20173;-81
2022/04/27 03:48:01;;;;;;;13.83;8.67;;;;;;;;;;4994602;28;20236;-81
2022/04/27 03:50:28;;;;;;;16.27;9.87;;;;;;;;;;5012513;28;20184;-81
2022/04/27 03:52:54;;;;;;;16.07;9.57;;;;;;;;;;5012475;28;20185;-85
2022/04/27 03:55:20;;;;;;;16.33;9.37;;;;;;;;;;5012542;28;20237;-81
2022/04/27 03:57:46;;;;;;;16.87;9.60;;;;;;;;;;4995351;28;20193;-81
2022/04/27 04:00:12;;;;;;;15.13;8.87;;;8.10;99.90;;;;;;5012140;28;20189;-81
2022/04/27 04:02:39;;;;;;;12.03;8.10;;;;;;;;;;5012833;28;20235;-80
2022/04/27 04:05:05;;;;;;;17.63;8.73;;;;;;;;;;4995254;28;20189;-81
2022/04/27 04:07:32;;;;;;;17.33;9.37;;;;;;;;;;4995049;28;20185;-82
2022/04/27 04:09:58;;;;;;;18.57;9.90;;;;;;;;;;4995260;28;20181;-80
2022/04/27 04:12:24;;;;;;;21.63;8.90;;;;;;;;;;5012691;28;20260;-81
2022/04/27 04:14:51;;;;;;;16.50;9.43;;;;;;;;;;4996168;28;20238;-79
2022/04/27 04:17:17;;;;;;;17.27;8.90;;;;;;;;;;5019117;28;20189;-81
2022/04/27 04:19:44;;;;;;;15.97;9.67;;;;;;;;;;5012457;28;20193;-81
2022/04/27 04:22:10;;;;;;;16.03;8.13;;;;;;;;;;4994657;28;20698;-81
2022/04/27 04:24:36;;;;;;;18.37;9.97;;;;;;;;;;4994328;28;20542;-80
2022/04/27 04:29:47;;;;;;;19.93;9.43;;;;;;;;;;5010879;28;20263;-80
2022/04/27 04:32:13;;;;;;;13.73;8.07;;;;;;;;;;5000545;28;20186;-84
2022/04/27 04:34:39;;;;;;;14.83;9.37;;;;;;;;;;4984922;28;20173;-81
2022/04/27 04:37:06;;;;;;;14.67;8.00;;;;;;;;;;5001591;28;20188;-86
2022/04/27 04:39:32;;;;;;;16.43;9.07;;;;;;;;;;5007327;28;20196;-80
2022/04/27 04:41:58;;;;;;;15.67;9.43;;;;;;;;;;5002902;28;20585;-85
2022/04/27 04:44:23;;;;;;;17.93;10.13;;;8.10;99.90;;;;;;5002239;28;20567;-80
2022/04/27 04:46:49;;;;;;;16.57;8.70;;;;;;;;;;5006182;28;20192;-81
2022/04/27 04:49:15;;;;;;;17.03;9.00;;;8.10;99.90;;;;;;4983070;28;20687;-82
2022/04/27 04:51:41;;;;;;;16.07;9.07;;;;;;;;;;4983368;28;20189;-81
2022/04/27 04:54:07;;;;;;;19.70;10.03;;;;;;;;;;5004277;28;20379;-80
2022/04/27 04:56:33;;;;;;;15.37;8.57;;;;;;;;;;4984816;28;20709;-82
2022/04/27 04:58:59;;;;;;;14.20;8.67;;;;;;;;;;4984920;28;20193;-85
2022/04/27 05:01:25;;;;;;;18.93;8.93;;;;;;;;;;4991894;28;20185;-81
2022/04/27 05:03:51;;;;;;;14.20;8.73;;;;;;;;;;5015780;28;20200;-81
2022/04/27 05:06:17;;;;;;;19.93;9.67;;;8.90;99.90;;;;;;4982252;28;20185;-80
2022/04/27 05:08:43;;;;;;;18.27;8.40;;;;;;;;;;5015263;28;20248;-81
2022/04/27 05:11:09;;;;;;;19.33;10.10;;;;;;;;;;4997656;28;20626;-82
2022/04/27 05:13:37;;;;;;;16.30;9.10;;;8.90;99.90;;;;;;5015500;28;20180;-81
2022/04/27 05:16:04;;;;;;;15.60;8.03;;;8.50;99.90;;;;;;4997188;28;20223;-82
2022/04/27 05:18:30;;;;;;;20.50;9.57;;;8.50;99.90;;;;;;4996760;28;20316;-81
2022/04/27 05:20:56;;;;;;;21.13;8.93;;;;;;;;;;4997959;28;20189;-83
2022/04/27 05:23:22;;;;;;;15.13;8.47;;;;;;;;;;5016208;28;20237;-82
2022/04/27 05:25:48;;;;;;;14.10;8.00;;;;;;;;;;4999033;28;20634;-81
2022/04/27 05:28:13;;;;;;;17.50;8.63;;;9.00;99.90;;;;;;5017072;28;20216;-82
2022/04/27 05:33:23;;;;;;;16.13;9.43;;;9.20;99.90;;;;;;5002672;28;20235;-82
2022/04/27 05:35:50;;;;;;;13.30;8.30;;;;;;;;;;5013657;28;20181;-85
2022/04/27 05:38:15;;;;;;;13.67;8.33;;;9.50;99.90;;;;;;5020339;28;20172;-83
2022/04/27 05:40:43;;;;;;;19.13;10.13;;;9.60;99.90;;;;;;5037482;28;20170;-82
2022/04/27 05:43:09;;;;;;;13.87;7.07;;;9.30;99.90;;;;;;5019690;28;20173;-83
2022/04/27 05:45:35;;;;;;;19.83;10.00;;;9.60;99.90;;;;;;5011201;28;20181;-82
2022/04/27 05:48:03;;;;;;;17.27;8.43;;;9.50;99.90;;;;;;4998822;28;20219;-82
2022/04/27 05:50:29;;;;;;;18.63;9.30;;;;;;;;;;5015839;28;20182;-81
2022/04/27 05:52:58;;;;;;;15.77;8.10;;;9.60;99.90;;;;;;4999665;28;20267;-81
2022/04/27 05:55:24;;;;;;;18.50;9.20;;;9.80;99.90;;;;;;4998915;28;20585;-82
2022/04/27 05:57:50;;;;;;;16.47;8.17;;;9.90;99.90;;;;;;4999728;28;20216;-81
2022/04/27 06:00:17;;;;;;;12.23;7.23;;;10.00;99.90;;;;;;5016774;28;20298;-82
2022/04/27 06:02:44;;;;;;;14.47;8.90;;;9.90;99.90;;;;;;5016734;28;20251;-82
2022/04/27 06:05:10;;;;;;;18.07;8.20;;;9.80;99.90;;;;;;4999259;28;20280;-83
2022/04/27 06:07:36;;;;;;;14.60;7.70;;;10.10;99.90;;;;;;5017592;28;20394;-82
2022/04/27 06:10:07;;;;;;;14.00;7.13;;;10.20;99.90;;;;;;5016371;28;20181;-82
2022/04/27 06:12:35;;;;;;;11.47;6.97;;;10.20;99.90;;;;;;5029427;28;20173;-82
2022/04/27 06:15:03;;;;;;;14.17;7.23;;;10.50;99.90;;;;;;5022010;28;20177;-82
2022/04/27 06:17:28;;;;;;;11.57;7.03;;;10.10;99.90;;;;;;5020982;28;20188;-82
2022/04/27 06:19:54;;;;;;;15.03;7.97;;;10.40;99.90;;;;;;4990209;28;20181;-80
2022/04/27 06:22:20;;;;;;;15.02;7.55;;;;;;;;;;5034598;28;20244;-82
2022/04/27 06:24:46;;;;;;;15.00;7.97;;;;;;;;;;5029284;28;20185;-82
2022/04/27 06:27:12;;;;;;;11.00;5.93;;;10.50;99.90;;;;;;5027252;28;20188;-83
2022/04/27 06:29:38;;;;;;;10.80;6.50;;;;;;;;;;5011001;28;20213;-80
2022/04/27 06:32:04;;;;;;;12.25;6.28;;;11.00;99.90;;;;;;5029448;28;20300;-82
2022/04/27 06:34:31;;;;;;;10.07;5.82;;;10.70;99.90;;;;;;5010934;28;20181;-83
2022/04/27 06:36:56;;;;;;;13.68;6.60;;;10.80;99.90;;;;;;5020822;28;20188;-83
2022/04/27 06:39:23;;;;;;;14.68;6.32;;;;;;;;;;4987667;28;20264;-83
2022/04/27 06:41:48;;;;;;;13.60;7.30;;;10.90;99.90;;;;;;5021337;28;20173;-83
2022/04/27 06:44:14;;;;;;;10.03;6.27;;;11.10;99.90;;;;;;5004603;28;20240;-84
2022/04/27 06:46:40;;;;;;;11.20;6.15;;;;;;;;;;5023026;28;20192;-83
2022/04/27 06:49:06;;;;;;;10.65;5.68;;;;;;;;;;5039425;28;20209;-82
2022/04/27 06:51:31;;;;;;;7.53;4.75;;;11.20;99.90;;;;;;5038351;28;20173;-83
2022/04/27 06:53:59;;;;;;;10.90;6.30;;;11.20;99.90;;;;;;4987951;28;20181;-82
2022/04/27 06:56:25;;;;;;;8.35;5.45;;;11.30;99.90;;;;;;5021700;28;20260;-84
2022/04/27 06:58:51;;;;;;;8.32;5.22;;;;;;;;;;5022629;28;20161;-83
2022/04/27 07:01:21;;;;;;;8.65;5.35;;;11.60;99.90;;;;;;5035535;28;20177;-89
2022/04/27 07:03:53;;;;;;;7.75;4.63;;;11.80;99.90;;;;;;5039315;28;20169;-83
2022/04/27 07:06:20;;;;;;;6.97;4.82;;;;;;;;;;5000906;28;20181;-83
2022/04/27 07:08:46;;;;;;;10.57;5.80;;;12.00;99.90;;;;;;4997187;28;20220;-83
2022/04/27 07:11:12;;;;;;;8.55;5.25;;;12.20;99.90;;;;;;5014691;28;20656;-83
2022/04/27 07:13:38;;;;;;;11.55;6.00;;;11.90;99.90;;;;;;4980568;28;20196;-83
2022/04/27 07:16:05;;;;;;;9.82;5.32;;;12.20;99.90;;;;;;5016191;28;20173;-83
2022/04/27 07:18:31;;;;;;;8.38;5.13;;;12.50;99.90;;;;;;5014460;28;20239;-83
2022/04/27 07:20:57;;;;;;;9.05;5.65;;;;;;;;;;4997266;28;20181;-83
2022/04/27 07:23:23;;;;;;;10.43;5.60;;;12.20;99.90;;;;;;5014309;28;20181;-83
2022/04/27 07:25:49;;;;;;;12.70;5.53;;;12.00;99.90;;;;;;4998006;28;20188;-83
2022/04/27 07:28:15;;;;;;;7.25;4.30;;;;;;;;;;4996870;28;20609;-85
2022/04/27 07:30:41;;;;;;;10.10;5.38;;;11.90;99.90;;;;;;4980891;28;20239;-83
2022/04/27 07:33:07;;;;;;;6.57;4.20;;;12.20;99.90;;;;;;4996897;28;20200;-83
2022/04/27 07:35:33;;;;;;;6.53;4.07;;;;;;;;;;5013844;28;20202;-83
2022/04/27 07:37:59;;;;;;;7.25;4.80;;;12.30;99.90;;;;;;5014173;28;20181;-83
2022/04/27 07:40:24;;;;;;;8.18;4.78;;;12.60;99.90;;;;;;4980363;28;20180;-83
2022/04/27 07:42:50;;;;;;;6.57;4.15;;;;;;;;;;5014175;28;20182;-83
2022/04/27 07:45:16;;;;;;;9.68;5.63;;;12.90;99.90;;;;;;5014279;28;20660;-83
2022/04/27 07:47:46;;;;;;;7.90;4.30;;;12.60;99.90;;;;;;5013685;28;20185;-83
2022/04/27 07:50:16;;;;;;;7.53;4.60;;;12.30;99.90;;;;;;5014493;28;20623;-83
2022/04/27 07:52:43;;;;;;;8.10;4.55;;;12.70;99.90;;;;;;4996058;28;20177;-83
2022/04/27 07:55:09;;;;;;;7.43;4.38;;;12.60;99.90;;;;;;5013837;28;20556;-83
2022/04/27 07:57:35;;;;;;;5.53;4.20;;;;;;;;;;4996119;28;20515;-83
2022/04/27 08:00:05;;;;;;;5.57;4.05;;;13.00;99.90;;;;;;5013827;28;20212;-82
2022/04/27 08:02:31;;;;;;;9.80;4.25;;;12.90;99.90;;;;;;5013569;28;20208;-82
2022/04/27 08:04:57;;;;;;;7.72;4.18;;;;;;;;;;4996246;28;20217;-83
2022/04/27 08:07:23;;;;;;;6.30;3.60;;;13.60;99.90;;;;;;5013599;28;20177;-83
2022/04/27 08:09:49;;;;;;;6.22;3.88;;;;;;;;;;5013669;28;20258;-83
2022/04/27 08:12:15;;;;;;;5.38;3.60;;;13.30;99.90;;;;;;4996005;28;20216;-83
2022/04/27 08:14:41;;;;;;;6.40;3.63;;;;;;;;;;5013625;28;20204;-82
2022/04/27 08:17:07;;;;;;;5.43;3.30;;;14.10;99.90;;;;;;4996080;28;20189;-83
2022/04/27 08:19:33;;;;;;;6.72;3.80;;;;;;;;;;4995977;28;20177;-83
2022/04/27 08:22:01;;;;;;;10.32;4.07;;;13.70;99.90;;;;;;5013745;28;20182;-83
2022/04/27 08:24:27;;;;;;;5.30;3.35;;;13.70;99.90;;;;;;5013673;28;20652;-84
2022/04/27 08:26:53;;;;;;;4.40;3.20;;;13.90;99.90;;;;;;4997015;28;20192;-83
2022/04/27 08:29:19;;;;;;;7.00;3.70;;;14.10;99.90;;;;;;4996515;28;20212;-84
2022/04/27 08:31:44;;;;;;;5.50;3.25;;;13.90;99.90;;;;;;4995880;28;20182;-84
2022/04/27 08:34:11;;;;;;;7.85;3.40;;;;;;;;;;5013571;28;20533;-83
2022/04/27 08:36:36;;;;;;;5.32;3.20;;;14.60;99.90;;;;;;5013382;28;20189;-84
2022/04/27 08:39:04;;;;;;;5.20;3.33;;;;;;;;;;5013220;28;20656;-84
2022/04/27 08:41:30;;;;;;;5.28;3.50;;;14.40;99.90;;;;;;4979851;28;20181;-84
2022/04/27 08:43:56;;;;;;;6.93;3.53;;;;;;;;;;5013708;28;20228;-83
2022/04/27 08:46:24;;;;;;;4.30;3.13;;;14.00;99.90;;;;;;4995742;28;20185;-84
2022/04/27 08:48:50;;;;;;;4.05;2.95;;;14.30;99.90;;;;;;5013235;28;20200;-84
2022/04/27 08:51:17;;;;;;;4.68;2.90;;;14.70;99.90;;;;;;4995683;28;20201;-84
2022/04/27 08:53:44;;;;;;;5.78;2.90;;;14.50;99.90;;;;;;4995994;28;20188;-83
2022/04/27 08:56:10;;;;;;;3.40;2.40;;;14.40;99.90;;;;;;4997713;28;20233;-83
2022/04/27 08:58:36;;;;;;;4.75;2.55;;;14.50;99.90;;;;;;5016248;28;20626;-84
2022/04/27 09:01:02;;;;;;;4.30;2.80;;;14.80;99.90;;;;;;4997471;28;20188;-84
2022/04/27 09:03:33;;;;;;;4.88;3.25;;;14.40;99.90;;;;;;4996965;28;20173;-84
2022/04/27 09:06:06;;;;;;;3.38;2.90;;;14.80;99.90;;;;;;5014772;28;20209;-83
2022/04/27 09:08:43;;;;;;;4.68;2.97;;;15.60;99.90;;;;;;4997131;28;20236;-84
2022/04/27 09:11:25;;;;;;;7.47;4.18;;;15.00;99.90;;;;;;5013538;28;20161;-84
2022/04/27 09:13:54;;;;;;;3.08;2.50;;;15.50;99.90;;;;;;4997878;28;20165;-84
2022/04/27 09:16:22;;;;;;;3.53;2.35;;;15.20;99.90;;;;;;4997281;28;20648;-83
2022/04/27 09:21:53;;;;;;;4.25;2.30;;;15.50;99.30;;;;;;5013383;28;20301;-84
2022/04/27 09:24:19;;;;;;;3.05;2.17;;;14.90;99.40;;;;;;5014494;28;20186;-84
2022/04/27 09:26:44;;;;;;;10.75;2.92;;;15.40;99.90;;;;;;5020438;28;20187;-84
2022/04/27 09:29:23;;;;;;;3.33;2.00;;;15.60;99.50;;;;;;5017987;28;20339;-84
2022/04/27 09:31:56;;;;;;;5.60;2.58;;;15.20;99.90;;;;;;5001341;28;20196;-83
2022/04/27 09:34:28;;;;;;;3.42;2.40;;;15.40;97.90;;;;;;5018076;28;20162;-83
2022/04/27 09:37:12;;;;;;;4.28;2.50;;;15.40;93.80;;;;;;5000880;28;20189;-84
2022/04/27 09:39:38;;;;;;;3.80;2.00;;;15.90;99.90;;;;;;5017563;28;20614;-81
2022/04/27 09:42:05;;;;;;;3.53;2.33;;;15.80;99.90;;;;;;5001044;28;20196;-81
2022/04/27 09:44:32;;;;;;;3.00;2.33;;;15.70;97.20;;;;;;5000090;28;20177;-84
2022/04/27 09:46:59;;;;;;;2.92;2.00;;;15.60;97.60;;;;;;5018178;28;20256;-83
2022/04/27 09:49:25;;;;;;;3.20;2.35;;;15.70;99.90;;;;;;5017535;28;20696;-83
2022/04/27 09:51:52;;;;;;;5.13;2.50;;;15.80;99.50;;;;;;5017510;28;20272;-83
2022/04/27 09:54:20;;;;;;;3.45;2.05;;;15.70;94.90;;;;;;5017584;28;20656;-82
2022/04/27 09:56:57;;;;;;;1.92;1.55;;;15.90;93.90;;;;;;5017346;28;20282;-82
2022/04/27 09:59:29;;;;;;;3.03;2.00;;;16.50;99.40;;;;;;5000969;28;20197;-81
2022/04/27 10:02:05;;;;;;;3.35;2.70;;;16.70;96.20;;;;;;5000802;28;20177;-81
2022/04/27 10:04:30;;;;;;;3.17;2.60;;;16.70;93.00;;;;;;5017365;28;20181;-87
2022/04/27 10:06:58;;;;;;;4.70;2.60;;;16.30;85.70;;;;;;4983493;28;20585;-83
2022/04/27 10:09:29;;;;;;;2.47;1.83;;;16.00;91.10;;;;;;5001033;28;20220;-83
2022/04/27 10:11:56;;;;;;;3.60;2.20;;;16.10;94.30;;;;;;5016180;28;20173;-84
2022/04/27 10:14:22;;;;;;;3.63;1.85;;;16.20;94.40;;;;;;5001053;28;20184;-83
2022/04/27 10:16:49;;;;;;;2.80;1.85;;;16.50;87.80;;;;;;4999619;28;20689;-84
2022/04/27 10:19:16;;;;;;;3.42;1.98;;;16.90;90.60;;;;;;4998607;28;20189;-83
2022/04/27 10:22:05;;;;;;;2.05;1.85;;;17.00;82.30;;;;;;4999391;28;20653;-84
2022/04/27 10:24:33;;;;;;;2.33;1.80;;;16.60;86.70;;;;;;5000531;28;20185;-83
2022/04/27 10:27:21;;;;;;;2.30;1.38;;;16.50;73.40;;;;;;5000201;28;20209;-82
2022/04/27 10:29:51;;;;;;;2.17;1.25;;;16.00;79.70;;;;;;5018369;28;20205;-84
2022/04/27 10:32:42;;;;;;;1.95;1.30;;;16.20;78.20;;;;;;5017151;28;20618;-82
2022/04/27 10:35:21;;;;;;;2.60;1.50;;;16.90;78.90;;;;;;4997491;28;20192;-82
2022/04/27 10:37:59;;;;;;;3.63;1.23;;;17.30;78.40;;;;;;4999220;28;20184;-82
2022/04/27 10:40:33;;;;;;;2.05;1.67;;;17.20;78.20;;;;;;5017124;28;20169;-82
2022/04/27 10:43:08;;;;;;;1.95;1.40;;;16.90;79.70;;;;;;4984455;28;20772;-83
2022/04/27 10:45:37;;;;;;;2.75;1.80;;;17.60;78.60;;;;;;4998939;28;20223;-84
2022/04/27 10:48:24;;;;;;;1.38;1.27;;;17.40;74.70;;;;;;5016480;28;20201;-83
2022/04/27 10:51:07;;;;;;;1.10;1.08;;;17.30;74.60;;;;;;5016391;28;20169;-84
2022/04/27 10:53:41;;;;;;;1.25;1.10;;;18.30;72.20;;;;;;4998743;28;20180;-82
2022/04/27 10:56:24;;;;;;;2.67;1.08;;;17.80;64.80;;;;;;5016637;28;20693;-82
2022/04/27 10:58:50;;;;;;;1.48;1.30;;;17.50;60.20;;;;;;5016172;28;20256;-84
2022/04/27 11:01:19;;;;;;;1.67;1.20;;;18.00;76.10;;;;;;4999258;28;20659;-84
2022/04/27 11:03:56;;;;;;;1.88;1.27;;;17.10;71.70;;;;;;4982291;28;20725;-84
2022/04/27 11:06:23;;;;;;;2.70;1.75;;;18.10;71.00;;;;;;4998960;28;20263;-82
2022/04/27 11:09:15;;;;;;;2.17;1.35;;;18.30;72.40;;;;;;4997975;28;20213;-83
2022/04/27 11:11:54;;;;;;;1.50;1.17;;;18.50;70.10;;;;;;4978157;28;20639;-84
2022/04/27 11:14:26;;;;;;;1.08;0.98;;;18.50;61.10;;;;;;5013194;28;20661;-82
2022/04/27 11:16:52;;;;;;;1.35;1.13;;;18.40;68.80;;;;;;5015304;28;20169;-82
2022/04/27 11:19:19;;;;;;;1.38;1.08;;;18.20;59.00;;;;;;4998275;28;20536;-82
2022/04/27 11:21:46;;;;;;;1.92;1.15;;;;;;;;;;4996770;28;20631;-83
2022/04/27 11:24:13;;;;;;;1.15;1.05;;;17.70;70.60;;;;;;4996992;28;20224;-82
2022/04/27 11:26:46;;;;;;;2.50;1.48;;;18.00;69.40;;;;;;4996808;28;20603;-84
2022/04/27 11:29:14;;;;;;;1.23;1.10;;;18.10;69.90;;;;;;4995213;28;20205;-83
2022/04/27 11:31:43;;;;;;;3.78;1.45;;;18.10;66.20;;;;;;5013277;28;20181;-84
2022/04/27 11:34:28;;;;;;;2.40;1.58;;;18.30;66.60;;;;;;4996261;28;20173;-84
2022/04/27 11:36:54;;;;;;;1.73;1.20;;;17.90;70.10;;;;;;4995754;28;20180;-84
2022/04/27 11:39:25;;;;;;;1.40;1.30;;;17.80;70.40;;;;;;4979613;28;20217;-83
2022/04/27 11:41:58;;;;;;;1.73;1.33;;;18.20;71.30;;;;;;5013111;28;20185;-84
2022/04/27 11:44:25;;;;;;;1.60;1.27;;;17.90;67.20;;;;;;4995663;28;20200;-84
2022/04/27 11:46:51;;;;;;;2.88;1.52;;;17.80;65.20;;;;;;4994547;28;20200;-84
2022/04/27 11:49:16;;;;;;;2.95;1.42;;;17.70;65.60;;;;;;5014007;28;20214;-83
2022/04/27 11:51:46;;;;;;;2.33;1.20;;;17.50;66.60;;;;;;5014238;28;20181;-84
2022/04/27 11:54:24;;;;;;;1.67;1.20;;;17.60;71.40;;;;;;4998294;28;20170;-81
2022/04/27 11:57:00;;;;;;;3.88;1.98;;;17.40;73.80;;;;;;4999310;28;20236;-83
2022/04/27 11:59:39;;;;;;;2.47;1.75;;;17.40;74.50;;;;;;4996326;28;20185;-82
2022/04/27 12:02:05;;;;;;;2.40;2.03;;;17.40;76.10;;;;;;5013683;28;20203;-84
2022/04/27 12:04:30;;;;;;;3.08;2.20;;;17.20;76.70;;;;;;5001667;28;20197;-79
2022/04/27 12:06:56;;;;;;;3.08;2.53;;;;;;;;;;5012421;28;20200;-82
2022/04/27 12:09:22;;;;;;;3.25;2.63;;;15.70;81.90;;;;;;4991739;28;20248;-80
2022/04/27 12:11:48;;;;;;;4.80;2.97;;;;;;;;;;5024273;28;20208;-82
2022/04/27 12:14:17;;;;;;;3.58;2.63;;;15.10;86.20;;;;;;5010193;28;20187;-82
2022/04/27 12:16:43;;;;;;;2.92;2.58;;;15.00;90.70;;;;;;5011885;28;20177;-81
2022/04/27 12:19:09;;;;;;;3.20;2.33;;;15.10;91.60;;;;;;5008133;28;20271;-82
2022/04/27 12:21:35;;;;;;;4.03;2.40;;;15.40;85.20;;;;;;5015244;28;20641;-81
2022/04/27 12:24:15;;;;;;;3.20;2.53;;;15.50;88.80;;;;;;5014233;28;20189;-81
2022/04/27 12:26:41;;;;;;;3.55;2.47;;;15.50;91.70;;;;;;5016692;28;20192;-82
2022/04/27 12:29:07;;;;;;;2.83;2.28;;;15.30;92.20;;;;;;5001687;28;20661;-83
2022/04/27 12:31:34;;;;;;;3.80;2.50;;;15.30;92.30;;;;;;5018905;28;20184;-81
2022/04/27 12:34:03;;;;;;;4.05;2.35;;;15.30;86.90;;;;;;5001118;28;20188;-81
2022/04/27 12:39:23;;;;;;;3.85;2.70;;;14.80;95.30;;;;;;5004894;28;20184;-82
2022/04/27 12:41:50;;;;;;;3.13;2.63;;;15.00;96.80;;;;;;5019818;28;20221;-81
2022/04/27 12:44:25;;;;;;;5.00;2.72;;;14.70;99.90;;;;;;5021455;28;20180;-82
2022/04/27 12:47:16;;;;;;;3.40;2.00;;;14.80;99.90;;;;;;5038358;28;20138;-82
2022/04/27 12:49:47;;;;;;;4.78;2.50;;;15.10;99.90;;;;;;5007471;28;20267;-81
2022/04/27 12:52:18;;;;;;;2.80;2.15;;;14.50;99.90;;;;;;5019351;28;20260;-82
2022/04/27 12:54:45;;;;;;;3.13;2.15;;;14.50;99.90;;;;;;5008326;28;20157;-82
2022/04/27 12:57:12;;;;;;;3.13;2.25;;;14.40;99.90;;;;;;5038219;28;20165;-82
2022/04/27 12:59:59;;;;;;;3.30;2.28;;;14.80;99.90;;;;;;5041713;28;20173;-82
2022/04/27 13:02:26;;;;;;;3.28;2.15;;;14.50;99.90;;;;;;5036063;28;20198;-83
2022/04/27 13:04:53;;;;;;;1.88;1.58;;;14.30;97.00;;;;;;5003143;28;20216;-82
2022/04/27 13:07:19;;;;;;;3.10;1.92;;;14.40;93.50;;;;;;4985354;28;20684;-83
2022/04/27 13:12:31;;;;;;;2.67;1.75;;;14.40;97.20;;;;;;5009460;28;20185;-82
2022/04/27 13:14:57;;;;;;;3.70;1.88;;;14.90;93.40;;;;;;4998000;28;20180;-82
2022/04/27 13:17:23;;;;;;;1.90;1.67;;;14.60;93.90;;;;;;4997698;28;20201;-82
2022/04/27 13:19:49;;;;;;;3.03;1.95;;;15.10;95.20;;;;;;4998931;28;20223;-80
2022/04/27 13:22:14;;;;;;;3.13;1.98;;;15.00;95.30;;;;;;5016488;28;20546;-82
2022/04/27 13:24:40;;;;;;;3.30;1.77;;;;;;;;;;4976773;28;20186;-82
2022/04/27 13:27:06;;;;;;;2.75;2.15;;;14.60;93.60;;;;;;4979056;28;20186;-81
2022/04/27 13:29:32;;;;;;;3.80;2.47;;;15.10;98.40;;;;;;4980331;28;20317;-82
2022/04/27 13:31:58;;;;;;;4.85;2.28;;;14.60;96.80;;;;;;4966504;28;20543;-82
2022/04/27 13:36:57;;;;;;;4.50;2.10;;;14.70;97.50;;;;;;4995831;28;20272;-82
2022/04/27 13:39:23;;;;;;;2.78;2.38;;;14.40;97.10;;;;;;4980482;28;20652;-81
2022/04/27 13:41:48;;;;;;;2.88;2.20;;;14.70;97.40;;;;;;4996452;28;20646;-82
2022/04/27 13:44:15;;;;;;;2.88;2.13;;;;;;;;;;4980494;28;20665;-82
2022/04/27 13:46:41;;;;;;;3.47;2.40;;;14.80;98.30;;;;;;4979344;28;20178;-82